sensor_id;sensor_type;location;lat;lon;timestamp;pressure;altitude;pressure_sealevel;temperature;humidity
15260;BME280;34462;51.368;12.364;2023-02-12T00:01:25;18933.94;;;-141.84;94.11
15260;BME280;34462;51.368;12.364;2023-02-12T00:03:55;18903.44;;;-141.84;94.30
15260;BME280;34462;51.368;12.364;2023-02-12T00:06:24;18911.56;;;-141.84;94.51
15260;BME280;34462;51.368;12.364;2023-02-12T00:08:55;18919.69;;;-141.84;94.55
15260;BME280;34462;51.368;12.364;2023-02-12T00:11:27;18927.84;;;-141.84;94.10
15260;BME280;34462;51.368;12.364;2023-02-12T00:13:56;18901.41;;;-141.84;94.06
15260;BME280;34462;51.368;12.364;2023-02-12T00:16:27;18925.81;;;-141.84;94.51
15260;BME280;34462;51.368;12.364;2023-02-12T00:18:58;18893.28;;;-141.84;94.69
15260;BME280;34462;51.368;12.364;2023-02-12T00:21:27;18907.50;;;-141.84;95.01
15260;BME280;34462;51.368;12.364;2023-02-12T00:23:55;18907.50;;;-141.84;94.52
15260;BME280;34462;51.368;12.364;2023-02-12T00:26:24;18903.44;;;-141.84;94.58
15260;BME280;34462;51.368;12.364;2023-02-12T00:28:53;18881.09;;;-141.84;94.69
15260;BME280;34462;51.368;12.364;2023-02-12T00:31:24;18895.31;;;-141.84;94.71
15260;BME280;34462;51.368;12.364;2023-02-12T00:33:53;18911.56;;;-141.84;94.56
15260;BME280;34462;51.368;12.364;2023-02-12T00:36:25;18913.59;;;-141.84;94.62
15260;BME280;34462;51.368;12.364;2023-02-12T00:38:55;18925.81;;;-141.84;94.12
15260;BME280;34462;51.368;12.364;2023-02-12T00:41:24;18899.38;;;-141.84;94.17
15260;BME280;34462;51.368;12.364;2023-02-12T00:43:53;18911.56;;;-141.84;94.40
15260;BME280;34462;51.368;12.364;2023-02-12T00:46:21;18909.53;;;-141.84;94.32
15260;BME280;34462;51.368;12.364;2023-02-12T00:48:49;18887.19;;;-141.84;94.07
15260;BME280;34462;51.368;12.364;2023-02-12T00:51:17;18881.09;;;-141.84;94.07
15260;BME280;34462;51.368;12.364;2023-02-12T00:53:47;18946.13;;;-141.84;93.70
15260;BME280;34462;51.368;12.364;2023-02-12T00:56:15;18905.47;;;-141.84;93.94
15260;BME280;34462;51.368;12.364;2023-02-12T00:58:43;18885.16;;;-141.84;94.07
15260;BME280;34462;51.368;12.364;2023-02-12T01:01:12;18875.00;;;-141.84;93.83
15260;BME280;34462;51.368;12.364;2023-02-12T01:03:40;18887.19;;;-141.84;93.60
15260;BME280;34462;51.368;12.364;2023-02-12T01:06:08;18854.69;;;-141.84;93.71
15260;BME280;34462;51.368;12.364;2023-02-12T01:08:36;18899.38;;;-141.84;94.03
15260;BME280;34462;51.368;12.364;2023-02-12T01:11:06;18891.25;;;-141.84;93.90
15260;BME280;34462;51.368;12.364;2023-02-12T01:13:35;18895.31;;;-141.84;93.84
15260;BME280;34462;51.368;12.364;2023-02-12T01:16:06;18925.81;;;-141.84;94.02
15260;BME280;34462;51.368;12.364;2023-02-12T01:18:37;18899.38;;;-141.84;94.33
15260;BME280;34462;51.368;12.364;2023-02-12T01:21:09;18915.63;;;-141.84;93.79
15260;BME280;34462;51.368;12.364;2023-02-12T01:23:38;18923.78;;;-141.84;93.25
15260;BME280;34462;51.368;12.364;2023-02-12T01:26:09;18915.63;;;-141.84;93.15
15260;BME280;34462;51.368;12.364;2023-02-12T01:28:39;18911.56;;;-141.84;93.47
15260;BME280;34462;51.368;12.364;2023-02-12T01:31:10;18911.56;;;-141.84;93.11
15260;BME280;34462;51.368;12.364;2023-02-12T01:33:39;18887.19;;;-141.84;93.33
15260;BME280;34462;51.368;12.364;2023-02-12T01:36:09;18909.53;;;-141.84;93.42
15260;BME280;34462;51.368;12.364;2023-02-12T01:38:38;18923.78;;;-141.84;93.73
15260;BME280;34462;51.368;12.364;2023-02-12T01:41:11;18889.22;;;-141.84;94.13
15260;BME280;34462;51.368;12.364;2023-02-12T01:43:40;18897.34;;;-141.84;94.50
15260;BME280;34462;51.368;12.364;2023-02-12T01:46:12;18870.94;;;-141.84;94.58
15260;BME280;34462;51.368;12.364;2023-02-12T01:48:44;18923.78;;;-141.84;94.55
15260;BME280;34462;51.368;12.364;2023-02-12T01:51:19;18895.31;;;-141.84;94.51
15260;BME280;34462;51.368;12.364;2023-02-12T01:53:53;18885.16;;;-141.84;94.52
15260;BME280;34462;51.368;12.364;2023-02-12T01:56:24;18899.38;;;-141.84;94.24
15260;BME280;34462;51.368;12.364;2023-02-12T01:58:54;18903.44;;;-141.84;94.40
15260;BME280;34462;51.368;12.364;2023-02-12T02:01:27;18895.31;;;-141.84;94.22
15260;BME280;34462;51.368;12.364;2023-02-12T02:04:01;18905.47;;;-141.84;94.44
15260;BME280;34462;51.368;12.364;2023-02-12T02:06:35;18909.53;;;-141.84;94.01
15260;BME280;34462;51.368;12.364;2023-02-12T02:09:05;18897.34;;;-141.84;94.10
15260;BME280;34462;51.368;12.364;2023-02-12T02:11:35;18905.47;;;-141.84;94.10
15260;BME280;34462;51.368;12.364;2023-02-12T02:14:23;18909.53;;;-141.84;94.07
15260;BME280;34462;51.368;12.364;2023-02-12T02:17:33;18883.13;;;-141.84;93.37
15260;BME280;34462;51.368;12.364;2023-02-12T02:20:57;18907.50;;;-141.84;93.30
15260;BME280;34462;51.368;12.364;2023-02-12T02:27:20;18917.66;;;-141.84;93.15
15260;BME280;34462;51.368;12.364;2023-02-12T02:30:22;18885.16;;;-141.84;93.42
15260;BME280;34462;51.368;12.364;2023-02-12T02:33:06;18897.34;;;-141.84;93.39
15260;BME280;34462;51.368;12.364;2023-02-12T02:35:45;18879.06;;;-141.84;93.66
15260;BME280;34462;51.368;12.364;2023-02-12T02:38:27;18872.97;;;-141.84;93.92
15260;BME280;34462;51.368;12.364;2023-02-12T02:41:05;18891.25;;;-141.84;94.15
15260;BME280;34462;51.368;12.364;2023-02-12T02:43:40;18883.13;;;-141.84;94.01
15260;BME280;34462;51.368;12.364;2023-02-12T02:46:16;18875.00;;;-141.84;93.83
15260;BME280;34462;51.368;12.364;2023-02-12T02:48:51;18903.44;;;-141.84;94.09
15260;BME280;34462;51.368;12.364;2023-02-12T02:51:25;18897.34;;;-141.84;93.66
15260;BME280;34462;51.368;12.364;2023-02-12T02:54:02;18891.25;;;-141.84;93.57
15260;BME280;34462;51.368;12.364;2023-02-12T02:56:37;18897.34;;;-141.84;93.63
15260;BME280;34462;51.368;12.364;2023-02-12T02:59:10;18907.50;;;-141.84;93.51
15260;BME280;34462;51.368;12.364;2023-02-12T03:01:46;18895.31;;;-141.84;93.13
15260;BME280;34462;51.368;12.364;2023-02-12T03:04:20;18889.22;;;-141.84;93.10
15260;BME280;34462;51.368;12.364;2023-02-12T03:06:58;18864.84;;;-141.84;93.01
15260;BME280;34462;51.368;12.364;2023-02-12T03:09:36;18881.09;;;-141.84;93.17
15260;BME280;34462;51.368;12.364;2023-02-12T03:12:11;18883.13;;;-141.84;93.35
15260;BME280;34462;51.368;12.364;2023-02-12T03:14:47;18881.09;;;-141.84;93.64
15260;BME280;34462;51.368;12.364;2023-02-12T03:17:25;18893.28;;;-141.84;94.17
15260;BME280;34462;51.368;12.364;2023-02-12T03:20:02;18875.00;;;-141.84;94.19
15260;BME280;34462;51.368;12.364;2023-02-12T03:22:36;18891.25;;;-141.84;93.95
15260;BME280;34462;51.368;12.364;2023-02-12T03:25:12;18913.59;;;-141.84;94.14
15260;BME280;34462;51.368;12.364;2023-02-12T03:27:44;18919.69;;;-141.84;94.24
15260;BME280;34462;51.368;12.364;2023-02-12T03:30:15;18885.16;;;-141.84;94.06
15260;BME280;34462;51.368;12.364;2023-02-12T03:32:56;18879.06;;;-141.84;94.32
15260;BME280;34462;51.368;12.364;2023-02-12T03:35:34;18885.16;;;-141.84;94.26
15260;BME280;34462;51.368;12.364;2023-02-12T03:38:14;18844.53;;;-141.84;94.32
15260;BME280;34462;51.368;12.364;2023-02-12T03:40:54;18919.69;;;-141.84;94.26
15260;BME280;34462;51.368;12.364;2023-02-12T03:43:29;18901.41;;;-141.84;94.30
15260;BME280;34462;51.368;12.364;2023-02-12T03:46:07;18901.41;;;-141.84;94.17
15260;BME280;34462;51.368;12.364;2023-02-12T03:48:46;18891.25;;;-141.84;94.46
15260;BME280;34462;51.368;12.364;2023-02-12T03:51:24;18875.00;;;-141.84;94.47
15260;BME280;34462;51.368;12.364;2023-02-12T03:53:55;18883.13;;;-141.84;94.64
15260;BME280;34462;51.368;12.364;2023-02-12T03:56:31;18875.00;;;-141.84;94.51
15260;BME280;34462;51.368;12.364;2023-02-12T03:59:00;18854.69;;;-141.84;94.53
15260;BME280;34462;51.368;12.364;2023-02-12T04:01:31;18883.13;;;-141.84;94.39
15260;BME280;34462;51.368;12.364;2023-02-12T04:04:06;18875.00;;;-141.84;94.44
15260;BME280;34462;51.368;12.364;2023-02-12T04:06:35;18893.28;;;-141.84;94.55
15260;BME280;34462;51.368;12.364;2023-02-12T04:09:08;18907.50;;;-141.84;94.42
15260;BME280;34462;51.368;12.364;2023-02-12T04:11:50;18866.88;;;-141.84;94.35
15260;BME280;34462;51.368;12.364;2023-02-12T04:14:28;18870.94;;;-141.84;94.22
15260;BME280;34462;51.368;12.364;2023-02-12T04:17:04;18846.56;;;-141.84;94.27
15260;BME280;34462;51.368;12.364;2023-02-12T04:19:48;18872.97;;;-141.84;94.27
15260;BME280;34462;51.368;12.364;2023-02-12T04:22:40;18864.84;;;-141.84;94.32
15260;BME280;34462;51.368;12.364;2023-02-12T04:25:29;18852.66;;;-141.84;94.39
15260;BME280;34462;51.368;12.364;2023-02-12T04:28:11;18842.50;;;-141.84;94.69
15260;BME280;34462;51.368;12.364;2023-02-12T04:30:46;18781.53;;;-141.84;94.44
15260;BME280;34462;51.368;12.364;2023-02-12T04:33:24;18787.63;;;-141.84;94.33
15260;BME280;34462;51.368;12.364;2023-02-12T04:36:01;18791.69;;;-141.84;94.47
15260;BME280;34462;51.368;12.364;2023-02-12T04:38:35;18803.88;;;-141.84;94.52
15260;BME280;34462;51.368;12.364;2023-02-12T04:41:06;18834.38;;;-141.84;94.56
15260;BME280;34462;51.368;12.364;2023-02-12T04:43:37;18789.66;;;-141.84;94.87
15260;BME280;34462;51.368;12.364;2023-02-12T04:46:07;18803.88;;;-141.84;94.57
15260;BME280;34462;51.368;12.364;2023-02-12T04:48:48;18777.47;;;-141.84;94.30
15260;BME280;34462;51.368;12.364;2023-02-12T04:51:18;18805.91;;;-141.84;94.26
15260;BME280;34462;51.368;12.364;2023-02-12T04:53:47;18814.03;;;-141.84;94.39
15260;BME280;34462;51.368;12.364;2023-02-12T04:56:16;18809.97;;;-141.84;94.50
15260;BME280;34462;51.368;12.364;2023-02-12T04:58:44;18781.53;;;-141.84;94.45
15260;BME280;34462;51.368;12.364;2023-02-12T05:01:12;18828.28;;;-141.84;94.71
15260;BME280;34462;51.368;12.364;2023-02-12T05:03:40;18785.59;;;-141.84;94.66
15260;BME280;34462;51.368;12.364;2023-02-12T05:06:09;18793.72;;;-141.84;94.61
15260;BME280;34462;51.368;12.364;2023-02-12T05:08:38;18816.06;;;-141.84;94.45
15260;BME280;34462;51.368;12.364;2023-02-12T05:11:08;18801.84;;;-141.84;94.35
15260;BME280;34462;51.368;12.364;2023-02-12T05:13:37;18818.09;;;-141.84;94.42
15260;BME280;34462;51.368;12.364;2023-02-12T05:16:06;18805.91;;;-141.84;94.47
15260;BME280;34462;51.368;12.364;2023-02-12T05:18:35;18834.38;;;-141.84;94.31
15260;BME280;34462;51.368;12.364;2023-02-12T05:21:04;18795.75;;;-141.84;94.33
15260;BME280;34462;51.368;12.364;2023-02-12T05:23:35;18789.66;;;-141.84;94.42
15260;BME280;34462;51.368;12.364;2023-02-12T05:26:09;18767.31;;;-141.84;94.31
15260;BME280;34462;51.368;12.364;2023-02-12T05:28:38;18826.25;;;-141.84;94.10
15260;BME280;34462;51.368;12.364;2023-02-12T05:31:10;18777.47;;;-141.84;94.26
15260;BME280;34462;51.368;12.364;2023-02-12T05:33:41;18744.97;;;-141.84;94.17
15260;BME280;34462;51.368;12.364;2023-02-12T05:36:13;18805.91;;;-141.84;94.26
15260;BME280;34462;51.368;12.364;2023-02-12T05:38:43;18773.41;;;-141.84;94.47
15260;BME280;34462;51.368;12.364;2023-02-12T05:41:15;18809.97;;;-141.84;94.21
15260;BME280;34462;51.368;12.364;2023-02-12T05:43:44;18799.81;;;-141.84;94.15
15260;BME280;34462;51.368;12.364;2023-02-12T05:46:16;18785.59;;;-141.84;93.79
15260;BME280;34462;51.368;12.364;2023-02-12T05:48:46;18822.19;;;-141.84;93.89
15260;BME280;34462;51.368;12.364;2023-02-12T05:51:17;18799.81;;;-141.84;93.88
15260;BME280;34462;51.368;12.364;2023-02-12T05:53:49;18795.75;;;-141.84;94.19
15260;BME280;34462;51.368;12.364;2023-02-12T05:56:24;18826.25;;;-141.84;94.42
15260;BME280;34462;51.368;12.364;2023-02-12T05:58:56;18779.50;;;-141.84;94.70
15260;BME280;34462;51.368;12.364;2023-02-12T06:01:28;18755.13;;;-141.84;94.76
15260;BME280;34462;51.368;12.364;2023-02-12T06:03:58;18771.38;;;-141.84;95.11
15260;BME280;34462;51.368;12.364;2023-02-12T06:06:27;18757.16;;;-141.84;95.27
15260;BME280;34462;51.368;12.364;2023-02-12T06:08:56;18793.72;;;-141.84;95.67
15260;BME280;34462;51.368;12.364;2023-02-12T06:11:26;18797.78;;;-141.84;95.60
15260;BME280;34462;51.368;12.364;2023-02-12T06:13:55;18785.59;;;-141.84;95.90
15260;BME280;34462;51.368;12.364;2023-02-12T06:16:26;18797.78;;;-141.84;95.94
15260;BME280;34462;51.368;12.364;2023-02-12T06:18:56;18767.31;;;-141.84;95.94
15260;BME280;34462;51.368;12.364;2023-02-12T06:21:25;18744.97;;;-141.84;95.79
15260;BME280;34462;51.368;12.364;2023-02-12T06:23:54;18777.47;;;-141.84;96.08
15260;BME280;34462;51.368;12.364;2023-02-12T06:26:24;18773.41;;;-141.84;95.92
15260;BME280;34462;51.368;12.364;2023-02-12T06:28:53;18779.50;;;-141.84;95.83
15260;BME280;34462;51.368;12.364;2023-02-12T06:31:24;18730.75;;;-141.84;95.80
15260;BME280;34462;51.368;12.364;2023-02-12T06:33:56;18765.28;;;-141.84;95.81
15260;BME280;34462;51.368;12.364;2023-02-12T06:36:24;18789.66;;;-141.84;95.77
15260;BME280;34462;51.368;12.364;2023-02-12T06:38:53;18773.41;;;-141.84;95.95
15260;BME280;34462;51.368;12.364;2023-02-12T06:41:22;18783.56;;;-141.84;95.78
15260;BME280;34462;51.368;12.364;2023-02-12T06:43:51;18773.41;;;-141.84;95.74
15260;BME280;34462;51.368;12.364;2023-02-12T06:46:21;18765.28;;;-141.84;95.83
15260;BME280;34462;51.368;12.364;2023-02-12T06:48:52;18777.47;;;-141.84;95.85
15260;BME280;34462;51.368;12.364;2023-02-12T06:51:21;18753.09;;;-141.84;95.98
15260;BME280;34462;51.368;12.364;2023-02-12T06:53:51;18799.81;;;-141.84;96.00
15260;BME280;34462;51.368;12.364;2023-02-12T06:56:22;18807.94;;;-141.84;96.06
15260;BME280;34462;51.368;12.364;2023-02-12T06:58:55;18763.25;;;-141.84;96.23
15260;BME280;34462;51.368;12.364;2023-02-12T07:01:26;18805.91;;;-141.84;96.17
15260;BME280;34462;51.368;12.364;2023-02-12T07:03:57;18805.91;;;-141.84;96.03
15260;BME280;34462;51.368;12.364;2023-02-12T07:06:27;18765.28;;;-141.84;95.51
15260;BME280;34462;51.368;12.364;2023-02-12T07:08:56;18777.47;;;-141.84;95.44
15260;BME280;34462;51.368;12.364;2023-02-12T07:11:26;18747.00;;;-141.84;95.63
15260;BME280;34462;51.368;12.364;2023-02-12T07:13:57;18749.03;;;-141.84;95.83
15260;BME280;34462;51.368;12.364;2023-02-12T07:16:25;18740.91;;;-141.84;95.82
15260;BME280;34462;51.368;12.364;2023-02-12T07:18:54;18740.91;;;-141.84;95.84
15260;BME280;34462;51.368;12.364;2023-02-12T07:21:22;18814.03;;;-141.84;95.99
15260;BME280;34462;51.368;12.364;2023-02-12T07:23:51;18759.19;;;-141.84;96.29
15260;BME280;34462;51.368;12.364;2023-02-12T07:26:20;18769.34;;;-141.84;96.10
15260;BME280;34462;51.368;12.364;2023-02-12T07:28:49;18773.41;;;-141.84;96.20
15260;BME280;34462;51.368;12.364;2023-02-12T07:31:22;18805.91;;;-141.84;96.08
15260;BME280;34462;51.368;12.364;2023-02-12T07:33:53;18814.03;;;-141.84;95.75
15260;BME280;34462;51.368;12.364;2023-02-12T07:36:25;18805.91;;;-141.84;95.21
15260;BME280;34462;51.368;12.364;2023-02-12T07:38:55;18789.66;;;-141.84;95.05
15260;BME280;34462;51.368;12.364;2023-02-12T07:41:26;18793.72;;;-141.84;95.01
15260;BME280;34462;51.368;12.364;2023-02-12T07:43:56;18803.88;;;-141.84;94.92
15260;BME280;34462;51.368;12.364;2023-02-12T07:46:28;18777.47;;;-141.84;94.64
15260;BME280;34462;51.368;12.364;2023-02-12T07:48:59;18783.56;;;-141.84;94.55
15260;BME280;34462;51.368;12.364;2023-02-12T07:51:28;18775.44;;;-141.84;94.67
15260;BME280;34462;51.368;12.364;2023-02-12T07:53:58;18803.88;;;-141.84;94.63
15260;BME280;34462;51.368;12.364;2023-02-12T07:56:29;18787.63;;;-141.84;94.60
15260;BME280;34462;51.368;12.364;2023-02-12T07:59:00;18799.81;;;-141.84;94.57
15260;BME280;34462;51.368;12.364;2023-02-12T08:01:32;18793.72;;;-141.84;94.63
15260;BME280;34462;51.368;12.364;2023-02-12T08:04:04;18809.97;;;-141.84;94.57
15260;BME280;34462;51.368;12.364;2023-02-12T08:06:36;18779.50;;;-141.84;94.55
15260;BME280;34462;51.368;12.364;2023-02-12T08:09:08;18755.13;;;-141.84;94.33
15260;BME280;34462;51.368;12.364;2023-02-12T08:11:37;18769.34;;;-141.84;94.55
15260;BME280;34462;51.368;12.364;2023-02-12T08:14:06;18775.44;;;-141.84;94.40
15260;BME280;34462;51.368;12.364;2023-02-12T08:16:38;18761.22;;;-141.84;94.60
15260;BME280;34462;51.368;12.364;2023-02-12T08:19:07;18809.97;;;-141.84;94.81
15260;BME280;34462;51.368;12.364;2023-02-12T08:21:48;18791.69;;;-141.84;94.62
15260;BME280;34462;51.368;12.364;2023-02-12T08:24:17;18781.53;;;-141.84;94.96
15260;BME280;34462;51.368;12.364;2023-02-12T08:26:48;18797.78;;;-141.84;94.62
15260;BME280;34462;51.368;12.364;2023-02-12T08:29:19;18820.16;;;-141.84;94.19
15260;BME280;34462;51.368;12.364;2023-02-12T08:31:54;18814.03;;;-141.84;94.10
15260;BME280;34462;51.368;12.364;2023-02-12T08:34:25;18791.69;;;-141.84;93.96
15260;BME280;34462;51.368;12.364;2023-02-12T08:36:55;18789.66;;;-141.84;93.65
15260;BME280;34462;51.368;12.364;2023-02-12T08:39:27;18812.00;;;-141.84;93.74
15260;BME280;34462;51.368;12.364;2023-02-12T08:41:58;18822.19;;;-141.84;93.70
15260;BME280;34462;51.368;12.364;2023-02-12T08:44:27;18842.50;;;-141.84;93.58
15260;BME280;34462;51.368;12.364;2023-02-12T08:46:56;18799.81;;;-141.84;93.17
15260;BME280;34462;51.368;12.364;2023-02-12T08:49:27;18783.56;;;-141.84;93.02
15260;BME280;34462;51.368;12.364;2023-02-12T08:51:59;18816.06;;;-141.84;92.39
15260;BME280;34462;51.368;12.364;2023-02-12T08:54:30;18846.56;;;-141.84;91.76
15260;BME280;34462;51.368;12.364;2023-02-12T08:57:01;18862.81;;;-141.84;90.70
15260;BME280;34462;51.368;12.364;2023-02-12T08:59:30;18842.50;;;-141.84;90.80
15260;BME280;34462;51.368;12.364;2023-02-12T09:02:00;18836.41;;;-141.84;91.34
15260;BME280;34462;51.368;12.364;2023-02-12T09:04:30;18866.88;;;-141.84;90.73
15260;BME280;34462;51.368;12.364;2023-02-12T09:06:58;18891.25;;;-141.84;89.74
15260;BME280;34462;51.368;12.364;2023-02-12T09:09:26;18887.19;;;-141.84;89.32
15260;BME280;34462;51.368;12.364;2023-02-12T09:11:54;18879.06;;;-141.84;89.08
15260;BME280;34462;51.368;12.364;2023-02-12T09:14:22;18897.34;;;-141.84;89.43
15260;BME280;34462;51.368;12.364;2023-02-12T09:16:51;18909.53;;;-141.84;89.75
15260;BME280;34462;51.368;12.364;2023-02-12T09:19:22;18927.84;;;-141.84;89.80
15260;BME280;34462;51.368;12.364;2023-02-12T09:21:51;18893.28;;;-141.84;89.50
15260;BME280;34462;51.368;12.364;2023-02-12T09:24:22;18893.28;;;-141.84;89.14
15260;BME280;34462;51.368;12.364;2023-02-12T09:26:50;18883.13;;;-141.84;89.51
15260;BME280;34462;51.368;12.364;2023-02-12T09:29:18;18915.63;;;-141.84;89.25
15260;BME280;34462;51.368;12.364;2023-02-12T09:31:47;18940.03;;;-141.84;89.42
15260;BME280;34462;51.368;12.364;2023-02-12T09:34:15;18911.56;;;-141.84;88.75
15260;BME280;34462;51.368;12.364;2023-02-12T09:36:45;18889.22;;;-141.84;88.85
15260;BME280;34462;51.368;12.364;2023-02-12T09:39:13;18911.56;;;-141.84;88.84
15260;BME280;34462;51.368;12.364;2023-02-12T09:42:26;18897.34;;;-141.84;88.75
15260;BME280;34462;51.368;12.364;2023-02-12T09:45:08;18909.53;;;-141.84;88.53
15260;BME280;34462;51.368;12.364;2023-02-12T09:47:45;18942.06;;;-141.84;88.60
15260;BME280;34462;51.368;12.364;2023-02-12T09:50:32;18938.00;;;-141.84;88.35
15260;BME280;34462;51.368;12.364;2023-02-12T09:53:11;18929.88;;;-141.84;88.19
15260;BME280;34462;51.368;12.364;2023-02-12T09:55:41;18944.09;;;-141.84;86.99
15260;BME280;34462;51.368;12.364;2023-02-12T09:58:14;18940.03;;;-141.84;87.03
15260;BME280;34462;51.368;12.364;2023-02-12T10:00:44;18931.91;;;-141.84;87.40
15260;BME280;34462;51.368;12.364;2023-02-12T10:03:15;18907.50;;;-141.84;87.72
15260;BME280;34462;51.368;12.364;2023-02-12T10:05:50;18905.47;;;-141.84;88.05
15260;BME280;34462;51.368;12.364;2023-02-12T10:08:45;18956.28;;;-141.84;88.30
15260;BME280;34462;51.368;12.364;2023-02-12T10:11:53;18895.31;;;-141.84;88.25
15260;BME280;34462;51.368;12.364;2023-02-12T10:15:02;18923.78;;;-141.84;87.90
15260;BME280;34462;51.368;12.364;2023-02-12T10:17:41;18927.84;;;-141.84;87.18
15260;BME280;34462;51.368;12.364;2023-02-12T10:23:51;18956.28;;;-141.84;86.32
15260;BME280;34462;51.368;12.364;2023-02-12T10:26:29;18935.97;;;-141.84;86.30
15260;BME280;34462;51.368;12.364;2023-02-12T10:29:09;18970.50;;;-141.84;85.01
15260;BME280;34462;51.368;12.364;2023-02-12T10:31:43;18982.69;;;-141.84;85.40
15260;BME280;34462;51.368;12.364;2023-02-12T10:34:17;18960.34;;;-141.84;85.73
15260;BME280;34462;51.368;12.364;2023-02-12T10:36:48;18976.59;;;-141.84;85.67
15260;BME280;34462;51.368;12.364;2023-02-12T10:39:24;18978.63;;;-141.84;84.05
15260;BME280;34462;51.368;12.364;2023-02-12T10:42:00;18978.63;;;-141.84;84.76
15260;BME280;34462;51.368;12.364;2023-02-12T10:44:30;18956.28;;;-141.84;85.01
15260;BME280;34462;51.368;12.364;2023-02-12T10:46:58;18980.66;;;-141.84;85.27
15260;BME280;34462;51.368;12.364;2023-02-12T10:49:31;18960.34;;;-141.84;84.81
15260;BME280;34462;51.368;12.364;2023-02-12T10:52:15;19009.09;;;-141.84;84.94
15260;BME280;34462;51.368;12.364;2023-02-12T10:54:48;19005.03;;;-141.84;84.98
15260;BME280;34462;51.368;12.364;2023-02-12T10:57:22;18988.78;;;-141.84;84.39
15260;BME280;34462;51.368;12.364;2023-02-12T10:59:53;19019.28;;;-141.84;83.88
15260;BME280;34462;51.368;12.364;2023-02-12T11:02:28;19005.03;;;-141.84;83.24
15260;BME280;34462;51.368;12.364;2023-02-12T11:04:59;19066.00;;;-141.84;82.89
15260;BME280;34462;51.368;12.364;2023-02-12T11:07:28;19039.59;;;-141.84;82.79
15260;BME280;34462;51.368;12.364;2023-02-12T11:09:57;19094.44;;;-141.84;81.85
15260;BME280;34462;51.368;12.364;2023-02-12T11:12:31;19151.34;;;-141.84;79.82
15260;BME280;34462;51.368;12.364;2023-02-12T11:15:14;19143.22;;;-141.84;78.88
15260;BME280;34462;51.368;12.364;2023-02-12T11:17:54;19171.66;;;-141.84;78.25
15260;BME280;34462;51.368;12.364;2023-02-12T11:20:27;19161.50;;;-141.84;78.87
15260;BME280;34462;51.368;12.364;2023-02-12T11:22:58;19106.66;;;-141.84;79.77
15260;BME280;34462;51.368;12.364;2023-02-12T11:25:33;19106.66;;;-141.84;78.83
15260;BME280;34462;51.368;12.364;2023-02-12T11:28:13;19084.28;;;-141.84;79.58
15260;BME280;34462;51.368;12.364;2023-02-12T11:30:51;19076.16;;;-141.84;79.56
15260;BME280;34462;51.368;12.364;2023-02-12T11:33:28;19070.06;;;-141.84;80.34
15260;BME280;34462;51.368;12.364;2023-02-12T11:36:00;19098.50;;;-141.84;80.13
15260;BME280;34462;51.368;12.364;2023-02-12T11:38:36;19080.22;;;-141.84;80.30
15260;BME280;34462;51.368;12.364;2023-02-12T11:41:26;19106.66;;;-141.84;80.12
15260;BME280;34462;51.368;12.364;2023-02-12T11:44:01;19110.72;;;-141.84;79.61
15260;BME280;34462;51.368;12.364;2023-02-12T11:46:30;19122.91;;;-141.84;79.88
15260;BME280;34462;51.368;12.364;2023-02-12T11:48:58;19102.56;;;-141.84;80.28
15260;BME280;34462;51.368;12.364;2023-02-12T11:51:30;19078.19;;;-141.84;80.73
15260;BME280;34462;51.368;12.364;2023-02-12T11:54:02;19084.28;;;-141.84;80.98
15260;BME280;34462;51.368;12.364;2023-02-12T11:56:45;19076.16;;;-141.84;80.90
15260;BME280;34462;51.368;12.364;2023-02-12T11:59:30;19053.81;;;-141.84;81.29
15260;BME280;34462;51.368;12.364;2023-02-12T12:02:15;19080.22;;;-141.84;81.77
15260;BME280;34462;51.368;12.364;2023-02-12T12:04:51;19049.75;;;-141.84;81.50
15260;BME280;34462;51.368;12.364;2023-02-12T12:07:26;19033.50;;;-141.84;81.45
15260;BME280;34462;51.368;12.364;2023-02-12T12:10:00;19061.94;;;-141.84;81.76
15260;BME280;34462;51.368;12.364;2023-02-12T12:12:38;19017.25;;;-141.84;82.28
15260;BME280;34462;51.368;12.364;2023-02-12T12:15:19;19070.06;;;-141.84;81.24
15260;BME280;34462;51.368;12.364;2023-02-12T12:18:20;19078.19;;;-141.84;80.83
15260;BME280;34462;51.368;12.364;2023-02-12T12:21:18;19061.94;;;-141.84;81.35
15260;BME280;34462;51.368;12.364;2023-02-12T12:23:56;19041.63;;;-141.84;81.52
15260;BME280;34462;51.368;12.364;2023-02-12T12:26:29;19059.91;;;-141.84;81.58
15260;BME280;34462;51.368;12.364;2023-02-12T12:29:05;19029.44;;;-141.84;81.73
15260;BME280;34462;51.368;12.364;2023-02-12T12:31:41;19068.03;;;-141.84;82.00
15260;BME280;34462;51.368;12.364;2023-02-12T12:34:14;19043.66;;;-141.84;81.08
15260;BME280;34462;51.368;12.364;2023-02-12T12:40:21;19053.81;;;-141.84;81.76
15260;BME280;34462;51.368;12.364;2023-02-12T12:43:07;19027.41;;;-141.84;81.22
15260;BME280;34462;51.368;12.364;2023-02-12T12:46:29;19078.19;;;-141.84;81.03
15260;BME280;34462;51.368;12.364;2023-02-12T12:49:33;19043.66;;;-141.84;80.92
15260;BME280;34462;51.368;12.364;2023-02-12T12:52:31;19035.53;;;-141.84;81.22
15260;BME280;34462;51.368;12.364;2023-02-12T12:55:21;19090.38;;;-141.84;81.31
15260;BME280;34462;51.368;12.364;2023-02-12T12:58:06;19027.41;;;-141.84;81.56
15260;BME280;34462;51.368;12.364;2023-02-12T13:00:58;19066.00;;;-141.84;81.25
15260;BME280;34462;51.368;12.364;2023-02-12T13:04:05;19063.97;;;-141.84;80.85
15260;BME280;34462;51.368;12.364;2023-02-12T13:07:12;19035.53;;;-141.84;81.31
15260;BME280;34462;51.368;12.364;2023-02-12T13:10:09;19039.59;;;-141.84;81.01
15260;BME280;34462;51.368;12.364;2023-02-12T13:13:12;19047.72;;;-141.84;81.84
15260;BME280;34462;51.368;12.364;2023-02-12T13:15:54;19051.78;;;-141.84;82.42
15260;BME280;34462;51.368;12.364;2023-02-12T13:18:42;19041.63;;;-141.84;82.44